Bei Facebook empfehlenBei Twitter postenGoogle plusPinterest

Das Wetter im Erzgebirge am 17.08.2016

Wetter und Klima am 17.08.2016 Holzhau im Erzgebirge (630m ü.NN)
Letzte gemessene Temperatur und Uhrzeit der Messung23:45:00 Uhr6.30 °C
Temperatur (Maximum / Höchstwert) und Uhrzeit der Messung16:45:00 Uhr19.90 °C
Temperatur (Minimum / Tiefstwert) und Uhrzeit der Messung04:15:004.80 °C
Errechneter Absolutwert der Temperaturschwankungen zwischen Tmin und Tmax des Tages15.10 K
Errechnete Tagesmitteltemperatur11.94271 °C
Gesamt - Niederschlag des Tages (in flüssiger Form)0.00 Liter / m²
Luftdruck (Maximum / Höchstwert) und Zeitpunkt der Messung01:00:00 Uhr1012.70 hPa
Luftdruck (Minimum / Tiefstwert) und Zeitpunkt der Messung23:45:00 Uhr1010.80 hPa
Errechneter Absolutwert der Luftdruckschwankungen des Tages1.90 hPa
Höchste gemessene Windgeschwindigkeit und Uhrzeit der Messung23:45:00 Uhr0.00 km/h
Errechnete Windhäufigkeit in Relation zu den Messwerten des Tages0.00000 %
Niedrigste Windkühle (Windchill) und Zeitpunkt der Messung04:15:00 Uhr4.80 °C
Taupunkt (Maximum / Höchstwert) und Uhrzeit der Messung16:45:00 Uhr11.90 °C
Taupunkt (Minimum / Tiefstwert) und Uhrzeit der Messung04:15:003.30 °C
Anzahl der automatisch eingelesenen Messwerte 96

Detaillierte Wetter- und Klima- Messwerte für den 17.08.2016 in Holzhau im Erzgebirge (630m ü.NN)
ZeitTemperaturLuftdruckRel. LuftfeuchteWindWindrichtungWindchillTaupunktNiederschlag l/m²
23:45:006.30 °C1010.80 hPa88.00 %4.50 °C 
23:30:006.40 °C1010.80 hPa87.00 %4.40 °C 
23:15:006.60 °C1011.00 hPa87.00 %4.60 °C 
23:00:006.70 °C1011.10 hPa86.00 %4.50 °C 
22:45:007.20 °C1011.40 hPa86.00 %5.00 °C 
22:30:007.30 °C1011.20 hPa85.00 %5.00 °C 
22:15:007.40 °C1011.50 hPa84.00 %4.90 °C 
22:00:007.40 °C1011.40 hPa83.00 %4.70 °C 
21:45:007.50 °C1011.30 hPa82.00 %4.60 °C 
21:30:007.90 °C1011.50 hPa80.00 %4.70 °C 
21:15:008.50 °C1011.30 hPa79.00 %5.10 °C 
21:00:009.20 °C1011.50 hPa78.00 %5.60 °C 
20:45:0010.10 °C1011.40 hPa76.00 %6.10 °C 
20:30:0010.90 °C1011.50 hPa75.00 %6.60 °C 
20:15:0011.90 °C1011.70 hPa73.00 %7.20 °C 
20:00:0012.90 °C1011.70 hPa72.00 %8.00 °C 
19:45:0013.60 °C1011.70 hPa70.00 %8.20 °C 
19:30:0014.40 °C1011.70 hPa68.00 %8.60 °C 
19:15:0015.10 °C1011.70 hPa66.00 %8.80 °C 
19:00:0016.10 °C1011.80 hPa65.00 %9.50 °C 
18:45:0016.70 °C1012.00 hPa64.00 %9.90 °C 
18:30:0017.20 °C1012.00 hPa64.00 %10.30 °C 
18:15:0017.60 °C1012.10 hPa63.00 %10.50 °C 
18:00:0017.60 °C1012.20 hPa61.00 %10.00 °C 
17:45:0017.90 °C1012.20 hPa63.00 %10.80 °C 
17:30:0017.60 °C1012.10 hPa63.00 %10.50 °C 
17:15:0017.50 °C1012.20 hPa62.00 %10.10 °C 
17:00:0018.40 °C1012.10 hPa61.00 %10.70 °C 
16:45:0019.90 °C1012.10 hPa60.00 %11.90 °C 
16:30:0019.40 °C1011.80 hPa62.00 %11.90 °C 
16:15:0018.30 °C1012.00 hPa65.00 %11.60 °C 
16:00:0017.30 °C1011.80 hPa65.00 %10.70 °C 
15:45:0017.50 °C1011.70 hPa65.00 %10.90 °C 
15:30:0017.10 °C1011.60 hPa68.00 %11.20 °C 
15:15:0015.80 °C1012.00 hPa67.00 %9.70 °C 
15:00:0016.30 °C1011.80 hPa66.00 %9.90 °C 
14:45:0016.90 °C1012.00 hPa64.00 %10.10 °C 
14:30:0017.50 °C1012.10 hPa64.00 %10.60 °C 
14:15:0017.40 °C1012.10 hPa66.00 %11.00 °C 
14:00:0016.90 °C1012.30 hPa65.00 %10.30 °C 
13:45:0017.60 °C1012.20 hPa63.00 %10.50 °C 
13:30:0018.90 °C1012.10 hPa63.00 %11.70 °C 
13:15:0017.60 °C1012.20 hPa68.00 %11.60 °C 
13:00:0016.60 °C1012.10 hPa67.00 %10.50 °C 
12:45:0016.60 °C1012.20 hPa66.00 %10.20 °C 
12:30:0017.30 °C1012.10 hPa66.00 %10.90 °C 
12:15:0017.50 °C1012.30 hPa67.00 %11.30 °C 
12:00:0016.90 °C1012.30 hPa68.00 %11.00 °C 
11:45:0016.30 °C1012.30 hPa70.00 %10.80 °C 
11:30:0015.90 °C1012.30 hPa70.00 %10.40 °C 
11:15:0015.80 °C1012.40 hPa69.00 %10.10 °C 
11:00:0016.40 °C1012.50 hPa70.00 %10.90 °C 
10:45:0016.10 °C1012.40 hPa72.00 %11.10 °C 
10:30:0016.20 °C1012.40 hPa74.00 %11.60 °C 
10:15:0015.50 °C1012.40 hPa78.00 %11.70 °C 
10:00:0014.90 °C1012.40 hPa81.00 %11.70 °C 
09:45:0013.90 °C1012.40 hPa84.00 %11.20 °C 
09:30:0013.40 °C1012.50 hPa88.00 %11.50 °C 
09:15:0012.20 °C1012.40 hPa89.00 %10.40 °C 
09:00:0012.30 °C1012.40 hPa91.00 %10.90 °C 
08:45:0011.60 °C1012.40 hPa93.00 %10.50 °C 
08:30:0010.40 °C1012.40 hPa93.00 %9.30 °C 
08:15:009.90 °C1012.50 hPa93.00 %8.80 °C 
08:00:009.30 °C1012.40 hPa93.00 %8.20 °C 
07:45:008.90 °C1012.40 hPa93.00 %7.80 °C 
07:30:008.80 °C1012.30 hPa93.00 %7.70 °C 
07:15:008.40 °C1012.40 hPa93.00 %7.30 °C 
07:00:008.00 °C1012.40 hPa92.00 %6.80 °C 
06:45:007.70 °C1012.30 hPa92.00 %6.50 °C 
06:30:007.40 °C1012.30 hPa92.00 %6.20 °C 
06:15:007.20 °C1012.20 hPa92.00 %6.00 °C 
06:00:007.00 °C1012.10 hPa92.00 %5.80 °C 
05:45:006.70 °C1012.10 hPa92.00 %5.50 °C 
05:30:006.30 °C1012.10 hPa92.00 %5.10 °C 
05:15:005.90 °C1012.30 hPa91.00 %4.50 °C 
05:00:005.30 °C1012.20 hPa91.00 %4.00 °C 
04:45:004.90 °C1012.10 hPa90.00 %3.40 °C 
04:30:004.90 °C1012.00 hPa90.00 %3.40 °C 
04:15:004.80 °C1011.80 hPa90.00 %3.30 °C 
04:00:005.20 °C1011.80 hPa89.00 %3.50 °C 
03:45:005.30 °C1011.90 hPa89.00 %3.60 °C 
03:30:005.80 °C1011.90 hPa89.00 %4.10 °C 
03:15:006.20 °C1011.90 hPa89.00 %4.50 °C 
03:00:006.80 °C1012.00 hPa89.00 %5.10 °C 
02:45:007.30 °C1012.10 hPa89.00 %5.60 °C 
02:30:007.90 °C1012.30 hPa88.00 %6.00 °C 
02:15:008.50 °C1012.30 hPa89.00 %6.80 °C 
02:00:009.20 °C1012.40 hPa89.00 %7.50 °C 
01:45:009.80 °C1012.50 hPa89.00 %8.10 °C 
01:30:0010.20 °C1012.50 hPa89.00 %8.50 °C 
01:15:0010.40 °C1012.60 hPa89.00 %8.70 °C 
01:00:0010.50 °C1012.70 hPa89.00 %8.80 °C 
00:45:0010.60 °C1012.60 hPa88.00 %8.70 °C 
00:30:0010.20 °C1012.60 hPa88.00 %8.30 °C 
00:15:008.90 °C1012.60 hPa87.00 %6.90 °C 
00:00:008.20 °C1012.70 hPa86.00 %6.00 °C 

Permanenter Link zu dieser Seite: Wetter im Erzgebirge am 17.08.2016
Performance-Info: Die Erstellung der Seite / Statistik(en) / Tabelle(n) erforderte 5 Datenbankserver-Abfrage(n) und dauerte 83 Millisekunden. (Dieser Messwert ist von der Gesamt-Auslastung des Servers abhängig.)
Erzgebirge - Wetter | Erzgebirge - Wetter (Mobilgeräte) | Komplette Klimadatenbank